sensor_id;sensor_type;location;lat;lon;timestamp;pressure;altitude;pressure_sealevel;temperature;humidity
74370;BME280;62805;44.644;10.942;2023-03-26T00:01:29;100749.66;;;11.60;82.23
74370;BME280;62805;44.644;10.942;2023-03-26T00:03:58;100754.72;;;11.58;82.61
74370;BME280;62805;44.644;10.942;2023-03-26T00:06:28;100744.94;;;11.46;83.24
74370;BME280;62805;44.644;10.942;2023-03-26T00:08:55;100743.50;;;11.48;83.81
74370;BME280;62805;44.644;10.942;2023-03-26T00:11:22;100740.13;;;11.46;83.42
74370;BME280;62805;44.644;10.942;2023-03-26T00:13:48;100739.59;;;11.44;84.48
74370;BME280;62805;44.644;10.942;2023-03-26T00:16:16;100749.19;;;11.38;83.98
74370;BME280;62805;44.644;10.942;2023-03-26T00:18:43;100746.66;;;11.37;84.16
74370;BME280;62805;44.644;10.942;2023-03-26T00:21:12;100740.75;;;11.38;84.02
74370;BME280;62805;44.644;10.942;2023-03-26T00:23:38;100745.81;;;11.36;84.04
74370;BME280;62805;44.644;10.942;2023-03-26T00:26:04;100745.31;;;11.19;84.02
74370;BME280;62805;44.644;10.942;2023-03-26T00:28:38;100743.88;;;11.16;84.80
74370;BME280;62805;44.644;10.942;2023-03-26T00:31:06;100749.78;;;11.20;84.83
74370;BME280;62805;44.644;10.942;2023-03-26T00:33:32;100744.13;;;11.25;84.59
74370;BME280;62805;44.644;10.942;2023-03-26T00:36:03;100741.06;;;11.16;84.41
74370;BME280;62805;44.644;10.942;2023-03-26T00:38:30;100731.25;;;11.14;84.70
74370;BME280;62805;44.644;10.942;2023-03-26T00:40:59;100745.06;;;11.05;84.79
74370;BME280;62805;44.644;10.942;2023-03-26T00:43:30;100735.78;;;11.00;85.06
74370;BME280;62805;44.644;10.942;2023-03-26T00:45:57;100741.38;;;11.10;85.29
74370;BME280;62805;44.644;10.942;2023-03-26T00:48:23;100750.94;;;11.09;84.71
74370;BME280;62805;44.644;10.942;2023-03-26T00:50:49;100748.13;;;11.04;85.36
74370;BME280;62805;44.644;10.942;2023-03-26T00:53:16;100737.75;;;10.94;85.78
74370;BME280;62805;44.644;10.942;2023-03-26T00:55:44;100729.03;;;10.86;86.09
74370;BME280;62805;44.644;10.942;2023-03-26T00:58:10;100739.97;;;10.97;85.89
74370;BME280;62805;44.644;10.942;2023-03-26T01:00:45;100732.06;;;11.14;85.02
74370;BME280;62805;44.644;10.942;2023-03-26T01:03:14;100731.78;;;11.11;85.07
74370;BME280;62805;44.644;10.942;2023-03-26T01:05:41;100728.72;;;11.07;84.90
74370;BME280;62805;44.644;10.942;2023-03-26T01:10:52;100739.16;;;10.82;85.79
74370;BME280;62805;44.644;10.942;2023-03-26T01:13:20;100729.59;;;10.78;86.01
74370;BME280;62805;44.644;10.942;2023-03-26T01:15:46;100727.91;;;10.82;85.95
74370;BME280;62805;44.644;10.942;2023-03-26T01:18:24;100714.16;;;10.70;86.25
74370;BME280;62805;44.644;10.942;2023-03-26T01:20:53;100706.00;;;10.69;86.24
74370;BME280;62805;44.644;10.942;2023-03-26T01:23:46;100708.25;;;10.67;86.08
74370;BME280;62805;44.644;10.942;2023-03-26T01:29:02;100677.91;;;10.39;86.61
74370;BME280;62805;44.644;10.942;2023-03-26T01:34:18;100698.69;;;10.38;87.57
74370;BME280;62805;44.644;10.942;2023-03-26T01:36:52;100698.41;;;10.34;87.53
74370;BME280;62805;44.644;10.942;2023-03-26T01:39:38;100690.25;;;10.43;87.18
74370;BME280;62805;44.644;10.942;2023-03-26T01:42:10;100679.03;;;10.23;87.51
74370;BME280;62805;44.644;10.942;2023-03-26T01:44:54;100687.47;;;10.28;87.35
74370;BME280;62805;44.644;10.942;2023-03-26T01:47:22;100686.31;;;10.24;87.24
74370;BME280;62805;44.644;10.942;2023-03-26T01:49:48;100680.13;;;10.17;87.51
74370;BME280;62805;44.644;10.942;2023-03-26T01:52:16;100684.66;;;10.13;87.66
74370;BME280;62805;44.644;10.942;2023-03-26T01:54:42;100681.00;;;10.22;87.37
74370;BME280;62805;44.644;10.942;2023-03-26T01:57:32;100683.50;;;10.19;86.94
74370;BME280;62805;44.644;10.942;2023-03-26T02:00:24;100682.94;;;10.11;87.72
74370;BME280;62805;44.644;10.942;2023-03-26T02:03:21;100685.19;;;10.09;87.52
74370;BME280;62805;44.644;10.942;2023-03-26T02:05:57;100684.88;;;10.06;87.76
74370;BME280;62805;44.644;10.942;2023-03-26T02:08:29;100675.06;;;10.03;88.08
74370;BME280;62805;44.644;10.942;2023-03-26T02:11:03;100675.06;;;10.03;88.15
74370;BME280;62805;44.644;10.942;2023-03-26T02:13:30;100678.97;;;9.92;88.53
74370;BME280;62805;44.644;10.942;2023-03-26T02:16:02;100668.84;;;9.86;89.18
74370;BME280;62805;44.644;10.942;2023-03-26T02:18:28;100662.94;;;9.83;89.36
74370;BME280;62805;44.644;10.942;2023-03-26T02:21:07;100663.78;;;9.83;89.39
74370;BME280;62805;44.644;10.942;2023-03-26T02:23:34;100668.81;;;9.81;89.43
74370;BME280;62805;44.644;10.942;2023-03-26T02:26:07;100661.81;;;9.79;89.72
74370;BME280;62805;44.644;10.942;2023-03-26T02:28:32;100655.91;;;9.80;89.97
74370;BME280;62805;44.644;10.942;2023-03-26T02:30:58;100646.34;;;9.76;89.80
74370;BME280;62805;44.644;10.942;2023-03-26T02:33:26;100650.31;;;9.85;89.45
74370;BME280;62805;44.644;10.942;2023-03-26T02:35:51;100657.06;;;9.79;89.60
74370;BME280;62805;44.644;10.942;2023-03-26T02:38:17;100651.44;;;9.79;89.68
74370;BME280;62805;44.644;10.942;2023-03-26T02:40:43;100641.03;;;9.70;89.57
74370;BME280;62805;44.644;10.942;2023-03-26T02:43:09;100650.88;;;9.72;89.87
74370;BME280;62805;44.644;10.942;2023-03-26T02:45:34;100640.44;;;9.63;90.21
74370;BME280;62805;44.644;10.942;2023-03-26T02:47:59;100642.66;;;9.46;90.23
74370;BME280;62805;44.644;10.942;2023-03-26T02:50:25;100649.13;;;9.51;90.35
74370;BME280;62805;44.644;10.942;2023-03-26T02:52:51;100650.81;;;9.62;90.19
74370;BME280;62805;44.644;10.942;2023-03-26T02:55:17;100648.56;;;9.64;89.82
74370;BME280;62805;44.644;10.942;2023-03-26T02:57:43;100646.91;;;9.63;89.56
74370;BME280;62805;44.644;10.942;2023-03-26T03:00:09;100656.13;;;9.49;89.92
74370;BME280;62805;44.644;10.942;2023-03-26T03:02:38;100659.75;;;9.44;90.37
74370;BME280;62805;44.644;10.942;2023-03-26T03:05:04;100653.00;;;9.40;90.41
74370;BME280;62805;44.644;10.942;2023-03-26T03:07:30;100665.91;;;9.41;90.61
74370;BME280;62805;44.644;10.942;2023-03-26T03:09:55;100659.16;;;9.37;90.43
74370;BME280;62805;44.644;10.942;2023-03-26T03:12:26;100656.94;;;9.39;90.54
74370;BME280;62805;44.644;10.942;2023-03-26T03:14:52;100652.41;;;9.33;90.33
74370;BME280;62805;44.644;10.942;2023-03-26T03:17:17;100654.66;;;9.36;90.39
74370;BME280;62805;44.644;10.942;2023-03-26T03:19:45;100657.47;;;9.36;90.45
74370;BME280;62805;44.644;10.942;2023-03-26T03:22:10;100660.88;;;9.48;90.13
74370;BME280;62805;44.644;10.942;2023-03-26T03:24:35;100650.78;;;9.42;90.07
74370;BME280;62805;44.644;10.942;2023-03-26T03:27:01;100657.19;;;9.38;89.82
74370;BME280;62805;44.644;10.942;2023-03-26T03:29:26;100653.00;;;9.35;90.32
74370;BME280;62805;44.644;10.942;2023-03-26T03:31:52;100648.53;;;9.39;89.98
74370;BME280;62805;44.644;10.942;2023-03-26T03:34:17;100649.03;;;9.31;90.03
74370;BME280;62805;44.644;10.942;2023-03-26T03:36:43;100652.41;;;9.33;90.54
74370;BME280;62805;44.644;10.942;2023-03-26T03:39:12;100651.81;;;9.26;90.25
74370;BME280;62805;44.644;10.942;2023-03-26T03:41:37;100653.22;;;9.24;90.69
74370;BME280;62805;44.644;10.942;2023-03-26T03:44:03;100650.97;;;9.21;90.90
74370;BME280;62805;44.644;10.942;2023-03-26T03:46:28;100627.06;;;9.08;90.44
74370;BME280;62805;44.644;10.942;2023-03-26T03:48:53;100643.97;;;9.28;90.20
74370;BME280;62805;44.644;10.942;2023-03-26T03:51:19;100649.31;;;9.25;90.27
74370;BME280;62805;44.644;10.942;2023-03-26T03:53:44;100646.16;;;9.11;90.23
74370;BME280;62805;44.644;10.942;2023-03-26T03:56:10;100647.34;;;9.20;90.70
74370;BME280;62805;44.644;10.942;2023-03-26T03:58:38;100635.53;;;9.13;90.25
74370;BME280;62805;44.644;10.942;2023-03-26T04:01:05;100637.50;;;9.18;90.67
74370;BME280;62805;44.644;10.942;2023-03-26T04:03:30;100640.56;;;9.16;90.39
74370;BME280;62805;44.644;10.942;2023-03-26T04:06:02;100639.44;;;9.17;90.60
74370;BME280;62805;44.644;10.942;2023-03-26T04:08:31;100650.63;;;9.12;90.80
74370;BME280;62805;44.644;10.942;2023-03-26T04:10:57;100650.63;;;9.12;90.69
74370;BME280;62805;44.644;10.942;2023-03-26T04:13:22;100656.00;;;9.19;90.24
74370;BME280;62805;44.644;10.942;2023-03-26T04:15:48;100651.78;;;9.16;90.29
74370;BME280;62805;44.644;10.942;2023-03-26T04:18:13;100654.03;;;9.14;90.59
74370;BME280;62805;44.644;10.942;2023-03-26T04:20:43;100657.41;;;9.16;90.61
74370;BME280;62805;44.644;10.942;2023-03-26T04:23:13;100654.03;;;9.14;90.81
74370;BME280;62805;44.644;10.942;2023-03-26T04:25:41;100657.38;;;9.11;90.81
74370;BME280;62805;44.644;10.942;2023-03-26T04:28:08;100655.66;;;9.05;91.08
74370;BME280;62805;44.644;10.942;2023-03-26T04:30:36;100658.47;;;9.10;91.27
74370;BME280;62805;44.644;10.942;2023-03-26T04:33:02;100654.19;;;8.97;91.85
74370;BME280;62805;44.644;10.942;2023-03-26T04:35:33;100651.69;;;8.96;92.05
74370;BME280;62805;44.644;10.942;2023-03-26T04:38:00;100645.47;;;8.89;92.42
74370;BME280;62805;44.644;10.942;2023-03-26T04:40:31;100656.69;;;8.89;92.37
74370;BME280;62805;44.644;10.942;2023-03-26T04:42:59;100642.06;;;8.82;92.69
74370;BME280;62805;44.644;10.942;2023-03-26T04:45:27;100661.41;;;8.83;92.63
74370;BME280;62805;44.644;10.942;2023-03-26T04:47:55;100646.53;;;8.73;92.48
74370;BME280;62805;44.644;10.942;2023-03-26T04:50:20;100636.38;;;8.67;92.27
74370;BME280;62805;44.644;10.942;2023-03-26T04:52:46;100643.16;;;8.76;92.25
74370;BME280;62805;44.644;10.942;2023-03-26T04:55:34;100635.84;;;8.70;92.37
74370;BME280;62805;44.644;10.942;2023-03-26T04:58:01;100640.03;;;8.67;92.60
74370;BME280;62805;44.644;10.942;2023-03-26T05:00:30;100633.00;;;8.65;92.53
74370;BME280;62805;44.644;10.942;2023-03-26T05:02:56;100616.19;;;8.65;92.64
74370;BME280;62805;44.644;10.942;2023-03-26T05:05:24;100616.19;;;8.65;92.65
74370;BME280;62805;44.644;10.942;2023-03-26T05:07:50;100607.28;;;8.73;92.52
74370;BME280;62805;44.644;10.942;2023-03-26T05:10:16;100622.69;;;8.70;92.44
74370;BME280;62805;44.644;10.942;2023-03-26T05:12:41;100632.69;;;8.61;92.81
74370;BME280;62805;44.644;10.942;2023-03-26T05:15:08;100618.38;;;8.53;93.20
74370;BME280;62805;44.644;10.942;2023-03-26T05:17:33;100627.34;;;8.55;93.03
74370;BME280;62805;44.644;10.942;2023-03-26T05:19:59;100619.81;;;8.60;93.33
74370;BME280;62805;44.644;10.942;2023-03-26T05:22:25;100613.13;;;8.66;92.79
74370;BME280;62805;44.644;10.942;2023-03-26T05:24:51;100610.34;;;8.71;92.50
74370;BME280;62805;44.644;10.942;2023-03-26T05:27:17;100617.59;;;8.62;92.62
74370;BME280;62805;44.644;10.942;2023-03-26T05:29:46;100616.75;;;8.62;92.50
74370;BME280;62805;44.644;10.942;2023-03-26T05:32:12;100621.22;;;8.63;92.70
74370;BME280;62805;44.644;10.942;2023-03-26T05:34:39;100618.41;;;8.63;92.59
74370;BME280;62805;44.644;10.942;2023-03-26T05:37:04;100617.31;;;8.64;92.53
74370;BME280;62805;44.644;10.942;2023-03-26T05:39:31;100620.69;;;8.66;92.57
74370;BME280;62805;44.644;10.942;2023-03-26T05:41:57;100605.56;;;8.67;92.45
74370;BME280;62805;44.644;10.942;2023-03-26T05:44:23;100615.16;;;8.81;92.44
74370;BME280;62805;44.644;10.942;2023-03-26T05:46:48;100620.47;;;8.77;92.01
74370;BME280;62805;44.644;10.942;2023-03-26T05:49:14;100623.03;;;8.84;91.63
74370;BME280;62805;44.644;10.942;2023-03-26T05:51:39;100628.06;;;8.82;91.49
74370;BME280;62805;44.644;10.942;2023-03-26T05:54:04;100633.13;;;8.85;91.42
74370;BME280;62805;44.644;10.942;2023-03-26T05:56:30;100621.06;;;8.79;90.97
74370;BME280;62805;44.644;10.942;2023-03-26T05:58:55;100626.09;;;8.82;90.27
74370;BME280;62805;44.644;10.942;2023-03-26T06:01:21;100611.25;;;8.87;90.44
74370;BME280;62805;44.644;10.942;2023-03-26T06:03:49;100620.84;;;9.01;90.36
74370;BME280;62805;44.644;10.942;2023-03-26T06:06:17;100624.31;;;9.13;90.07
74370;BME280;62805;44.644;10.942;2023-03-26T06:08:48;100632.22;;;9.31;89.45
74370;BME280;62805;44.644;10.942;2023-03-26T06:11:15;100632.78;;;9.38;88.84
74370;BME280;62805;44.644;10.942;2023-03-26T06:13:41;100621.00;;;9.36;89.00
74370;BME280;62805;44.644;10.942;2023-03-26T06:16:08;100609.25;;;9.44;88.90
74370;BME280;62805;44.644;10.942;2023-03-26T06:18:34;100618.28;;;9.61;88.34
74370;BME280;62805;44.644;10.942;2023-03-26T06:21:00;100624.47;;;9.68;88.27
74370;BME280;62805;44.644;10.942;2023-03-26T06:23:26;100614.38;;;9.92;87.59
74370;BME280;62805;44.644;10.942;2023-03-26T06:25:51;100611.56;;;10.02;86.82
74370;BME280;62805;44.644;10.942;2023-03-26T06:28:16;100609.94;;;10.17;86.57
74370;BME280;62805;44.644;10.942;2023-03-26T06:30:42;100608.81;;;10.23;86.19
74370;BME280;62805;44.644;10.942;2023-03-26T06:33:07;100597.00;;;10.26;85.78
74370;BME280;62805;44.644;10.942;2023-03-26T06:35:33;100589.41;;;10.36;85.52
74370;BME280;62805;44.644;10.942;2023-03-26T06:37:58;100591.94;;;10.38;84.90
74370;BME280;62805;44.644;10.942;2023-03-26T06:40:24;100592.50;;;10.35;84.75
74370;BME280;62805;44.644;10.942;2023-03-26T06:42:50;100595.31;;;10.40;84.86
74370;BME280;62805;44.644;10.942;2023-03-26T06:45:15;100604.31;;;10.42;84.91
74370;BME280;62805;44.644;10.942;2023-03-26T06:47:41;100597.00;;;10.46;85.31
74370;BME280;62805;44.644;10.942;2023-03-26T06:50:08;100597.00;;;10.46;85.01
74370;BME280;62805;44.644;10.942;2023-03-26T06:52:35;100594.19;;;10.46;85.09
74370;BME280;62805;44.644;10.942;2023-03-26T06:55:00;100600.91;;;10.50;84.60
74370;BME280;62805;44.644;10.942;2023-03-26T06:57:26;100577.03;;;10.47;84.66
74370;BME280;62805;44.644;10.942;2023-03-26T06:59:51;100582.91;;;10.56;84.48
74370;BME280;62805;44.644;10.942;2023-03-26T07:02:17;100584.34;;;10.58;84.29
74370;BME280;62805;44.644;10.942;2023-03-26T07:04:42;100589.06;;;10.73;84.40
74370;BME280;62805;44.644;10.942;2023-03-26T07:07:07;100587.38;;;10.77;84.41
74370;BME280;62805;44.644;10.942;2023-03-26T07:09:33;100595.81;;;10.72;84.15
74370;BME280;62805;44.644;10.942;2023-03-26T07:11:58;100589.06;;;10.73;83.91
74370;BME280;62805;44.644;10.942;2023-03-26T07:14:24;100591.88;;;10.68;83.63
74370;BME280;62805;44.644;10.942;2023-03-26T07:16:52;100586.84;;;10.65;83.31
74370;BME280;62805;44.644;10.942;2023-03-26T07:19:17;100591.56;;;10.74;83.37
74370;BME280;62805;44.644;10.942;2023-03-26T07:21:43;100581.16;;;10.80;83.49
74370;BME280;62805;44.644;10.942;2023-03-26T07:24:12;100600.25;;;10.83;83.33
74370;BME280;62805;44.644;10.942;2023-03-26T07:26:50;100593.53;;;10.79;83.56
74370;BME280;62805;44.644;10.942;2023-03-26T07:32:21;100591.28;;;10.81;83.59
74370;BME280;62805;44.644;10.942;2023-03-26T07:34:58;100602.06;;;10.44;84.84
74370;BME280;62805;44.644;10.942;2023-03-26T07:45:38;100590.09;;;10.97;84.99
74370;BME280;62805;44.644;10.942;2023-03-26T07:48:15;100581.69;;;10.92;83.57
74370;BME280;62805;44.644;10.942;2023-03-26T07:50:41;100576.59;;;10.94;83.22
74370;BME280;62805;44.644;10.942;2023-03-26T07:53:07;100585.00;;;11.09;83.09
74370;BME280;62805;44.644;10.942;2023-03-26T07:55:37;100573.09;;;11.27;82.19
74370;BME280;62805;44.644;10.942;2023-03-26T07:58:27;100576.34;;;11.49;82.01
74370;BME280;62805;44.644;10.942;2023-03-26T08:06:35;100554.34;;;11.56;80.66
74370;BME280;62805;44.644;10.942;2023-03-26T08:09:23;100530.63;;;11.67;80.12
74370;BME280;62805;44.644;10.942;2023-03-26T08:12:00;100536.69;;;11.89;79.89
74370;BME280;62805;44.644;10.942;2023-03-26T08:14:47;100537.75;;;11.93;79.27
74370;BME280;62805;44.644;10.942;2023-03-26T08:17:21;100541.22;;;11.85;79.62
74370;BME280;62805;44.644;10.942;2023-03-26T08:20:46;100543.88;;;12.00;79.79
74370;BME280;62805;44.644;10.942;2023-03-26T08:23:19;100539.75;;;12.21;78.87
74370;BME280;62805;44.644;10.942;2023-03-26T08:25:58;100533.66;;;12.09;78.93
74370;BME280;62805;44.644;10.942;2023-03-26T08:28:33;100535.56;;;12.19;79.47
74370;BME280;62805;44.644;10.942;2023-03-26T08:31:02;100530.06;;;12.32;79.18
74370;BME280;62805;44.644;10.942;2023-03-26T08:33:28;100522.66;;;12.42;79.05
74370;BME280;62805;44.644;10.942;2023-03-26T08:35:54;100518.41;;;12.15;78.33
74370;BME280;62805;44.644;10.942;2023-03-26T08:38:20;100521.44;;;12.48;77.94
74370;BME280;62805;44.644;10.942;2023-03-26T09:24:45;100480.00;;;14.02;71.33
74370;BME280;62805;44.644;10.942;2023-03-26T09:27:38;100478.59;;;14.18;70.84
74370;BME280;62805;44.644;10.942;2023-03-26T09:30:31;100470.91;;;14.50;70.71
74370;BME280;62805;44.644;10.942;2023-03-26T09:35:44;100459.59;;;14.91;68.53
74370;BME280;62805;44.644;10.942;2023-03-26T09:38:37;100451.19;;;15.00;66.92
74370;BME280;62805;44.644;10.942;2023-03-26T09:41:16;100448.03;;;15.15;66.36
74370;BME280;62805;44.644;10.942;2023-03-26T09:46:31;100453.16;;;15.62;64.78
74370;BME280;62805;44.644;10.942;2023-03-26T10:00:18;100438.97;;;15.84;60.48
74370;BME280;62805;44.644;10.942;2023-03-26T10:03:12;100440.63;;;16.07;59.02
74370;BME280;62805;44.644;10.942;2023-03-26T10:08:51;100418.19;;;16.50;56.18
74370;BME280;62805;44.644;10.942;2023-03-26T10:11:55;100401.06;;;16.63;56.08
74370;BME280;62805;44.644;10.942;2023-03-26T10:17:32;100396.13;;;16.95;56.69
74370;BME280;62805;44.644;10.942;2023-03-26T10:25:38;100375.75;;;17.27;56.92
74370;BME280;62805;44.644;10.942;2023-03-26T10:33:49;100369.53;;;17.84;56.06
74370;BME280;62805;44.644;10.942;2023-03-26T10:36:30;100363.56;;;17.69;56.41
74370;BME280;62805;44.644;10.942;2023-03-26T10:52:40;100328.34;;;18.08;54.10
74370;BME280;62805;44.644;10.942;2023-03-26T10:55:50;100317.78;;;18.08;54.01
74370;BME280;62805;44.644;10.942;2023-03-26T11:03:51;100323.72;;;18.61;53.98
74370;BME280;62805;44.644;10.942;2023-03-26T11:06:36;100311.06;;;18.79;53.55
74370;BME280;62805;44.644;10.942;2023-03-26T11:15:21;100291.84;;;18.76;55.25
74370;BME280;62805;44.644;10.942;2023-03-26T11:18:14;100290.22;;;18.67;54.28
74370;BME280;62805;44.644;10.942;2023-03-26T11:20:55;100281.16;;;18.44;54.29
74370;BME280;62805;44.644;10.942;2023-03-26T11:23:36;100269.94;;;18.10;55.03
74370;BME280;62805;44.644;10.942;2023-03-26T11:31:15;100290.53;;;17.61;55.90
74370;BME280;62805;44.644;10.942;2023-03-26T11:33:47;100289.22;;;17.50;56.23
74370;BME280;62805;44.644;10.942;2023-03-26T11:36:21;100293.19;;;17.66;55.18
74370;BME280;62805;44.644;10.942;2023-03-26T11:38:49;100291.38;;;17.53;55.32
74370;BME280;62805;44.644;10.942;2023-03-26T11:41:19;100286.69;;;17.57;54.98
74370;BME280;62805;44.644;10.942;2023-03-26T11:43:49;100287.00;;;17.64;54.83
74370;BME280;62805;44.644;10.942;2023-03-26T11:46:18;100280.22;;;17.94;54.70
74370;BME280;62805;44.644;10.942;2023-03-26T11:48:58;100260.69;;;17.84;54.70
74370;BME280;62805;44.644;10.942;2023-03-26T11:54:00;100253.94;;;17.97;53.89
74370;BME280;62805;44.644;10.942;2023-03-26T11:56:33;100248.69;;;18.08;53.81
74370;BME280;62805;44.644;10.942;2023-03-26T12:04:37;100251.81;;;18.52;54.07
74370;BME280;62805;44.644;10.942;2023-03-26T12:07:14;100258.97;;;18.58;51.40
74370;BME280;62805;44.644;10.942;2023-03-26T12:12:18;100253.69;;;18.48;52.22
74370;BME280;62805;44.644;10.942;2023-03-26T12:14:43;100247.44;;;18.75;49.96
74370;BME280;62805;44.644;10.942;2023-03-26T12:17:33;100243.28;;;18.73;50.10
74370;BME280;62805;44.644;10.942;2023-03-26T12:20:00;100231.88;;;18.93;49.68
74370;BME280;62805;44.644;10.942;2023-03-26T12:22:36;100215.66;;;19.27;49.34
74370;BME280;62805;44.644;10.942;2023-03-26T12:30:35;100206.06;;;19.88;48.68
74370;BME280;62805;44.644;10.942;2023-03-26T12:33:04;100208.19;;;19.79;48.31
74370;BME280;62805;44.644;10.942;2023-03-26T12:35:33;100204.28;;;19.71;46.69
74370;BME280;62805;44.644;10.942;2023-03-26T12:38:31;100197.59;;;18.90;45.60
74370;BME280;62805;44.644;10.942;2023-03-26T12:41:09;100188.56;;;19.21;45.63
74370;BME280;62805;44.644;10.942;2023-03-26T12:43:47;100175.84;;;19.63;44.62
74370;BME280;62805;44.644;10.942;2023-03-26T12:46:43;100174.19;;;20.10;43.40
74370;BME280;62805;44.644;10.942;2023-03-26T12:49:11;100171.34;;;20.10;43.56
74370;BME280;62805;44.644;10.942;2023-03-26T12:51:55;100169.72;;;20.21;42.48
74370;BME280;62805;44.644;10.942;2023-03-26T12:57:24;100152.00;;;19.79;43.24
74370;BME280;62805;44.644;10.942;2023-03-26T13:19:04;100085.34;;;19.60;43.55
74370;BME280;62805;44.644;10.942;2023-03-26T13:24:33;100086.00;;;20.29;42.03
74370;BME280;62805;44.644;10.942;2023-03-26T13:27:32;100080.25;;;20.69;41.19
74370;BME280;62805;44.644;10.942;2023-03-26T13:30:03;100075.78;;;20.83;41.41
74370;BME280;62805;44.644;10.942;2023-03-26T13:35:34;100071.84;;;20.60;42.08
74370;BME280;62805;44.644;10.942;2023-03-26T13:38:13;100078.09;;;20.38;41.15
74370;BME280;62805;44.644;10.942;2023-03-26T13:43:49;100066.47;;;21.30;39.94
74370;BME280;62805;44.644;10.942;2023-03-26T13:46:35;100059.19;;;21.17;40.24
74370;BME280;62805;44.644;10.942;2023-03-26T13:49:14;100061.09;;;20.69;40.20
74370;BME280;62805;44.644;10.942;2023-03-26T13:54:38;100040.75;;;20.43;41.18
74370;BME280;62805;44.644;10.942;2023-03-26T13:57:17;100041.25;;;20.33;41.74
74370;BME280;62805;44.644;10.942;2023-03-26T13:59:56;100033.47;;;20.18;42.25
74370;BME280;62805;44.644;10.942;2023-03-26T14:02:34;100019.22;;;20.06;41.98
74370;BME280;62805;44.644;10.942;2023-03-26T14:05:20;100017.16;;;20.07;42.06
74370;BME280;62805;44.644;10.942;2023-03-26T14:08:29;100016.72;;;20.05;42.59
74370;BME280;62805;44.644;10.942;2023-03-26T14:11:09;100010.41;;;20.11;42.42
74370;BME280;62805;44.644;10.942;2023-03-26T14:14:05;99998.25;;;20.14;42.90
74370;BME280;62805;44.644;10.942;2023-03-26T14:16:42;100001.94;;;20.15;42.33
74370;BME280;62805;44.644;10.942;2023-03-26T14:25:10;99987.34;;;20.04;42.53
74370;BME280;62805;44.644;10.942;2023-03-26T14:33:31;99949.38;;;19.88;43.69
74370;BME280;62805;44.644;10.942;2023-03-26T14:41:47;99912.25;;;20.00;43.70
74370;BME280;62805;44.644;10.942;2023-03-26T14:45:16;99908.63;;;20.15;43.23
74370;BME280;62805;44.644;10.942;2023-03-26T14:47:24;99892.28;;;20.00;42.36
74370;BME280;62805;44.644;10.942;2023-03-26T14:53:02;99900.72;;;19.69;43.09
74370;BME280;62805;44.644;10.942;2023-03-26T15:01:25;99888.13;;;19.70;43.23
74370;BME280;62805;44.644;10.942;2023-03-26T15:10:09;99861.41;;;19.35;44.38
74370;BME280;62805;44.644;10.942;2023-03-26T15:12:49;99842.88;;;19.29;44.17
74370;BME280;62805;44.644;10.942;2023-03-26T15:29:15;99807.16;;;19.19;44.99
74370;BME280;62805;44.644;10.942;2023-03-26T15:34:52;99781.88;;;19.18;45.02
74370;BME280;62805;44.644;10.942;2023-03-26T15:43:02;99774.34;;;18.98;44.46
74370;BME280;62805;44.644;10.942;2023-03-26T15:56:25;99793.28;;;18.54;45.62
74370;BME280;62805;44.644;10.942;2023-03-26T16:01:40;99797.16;;;18.37;46.77
74370;BME280;62805;44.644;10.942;2023-03-26T16:04:41;99802.13;;;18.28;48.10
74370;BME280;62805;44.644;10.942;2023-03-26T16:12:45;99808.13;;;18.03;51.08
74370;BME280;62805;44.644;10.942;2023-03-26T16:15:30;99814.50;;;17.88;50.90
74370;BME280;62805;44.644;10.942;2023-03-26T16:20:45;99811.16;;;17.53;53.39
74370;BME280;62805;44.644;10.942;2023-03-26T16:23:49;99825.50;;;17.36;55.67
74370;BME280;62805;44.644;10.942;2023-03-26T16:26:22;99830.31;;;16.44;63.45
74370;BME280;62805;44.644;10.942;2023-03-26T16:33:46;99860.19;;;14.68;76.68
74370;BME280;62805;44.644;10.942;2023-03-26T16:36:29;99842.91;;;14.30;78.84
74370;BME280;62805;44.644;10.942;2023-03-26T16:41:26;99849.94;;;14.10;82.54
74370;BME280;62805;44.644;10.942;2023-03-26T16:47:13;99865.31;;;13.65;87.29
74370;BME280;62805;44.644;10.942;2023-03-26T17:01:00;99894.44;;;12.26;94.19
74370;BME280;62805;44.644;10.942;2023-03-26T17:12:02;99875.25;;;12.01;96.86
74370;BME280;62805;44.644;10.942;2023-03-26T17:14:48;99895.88;;;11.97;96.79
74370;BME280;62805;44.644;10.942;2023-03-26T17:17:29;99879.38;;;11.90;97.10
74370;BME280;62805;44.644;10.942;2023-03-26T17:22:44;99924.25;;;12.00;96.90
74370;BME280;62805;44.644;10.942;2023-03-26T17:33:48;99996.91;;;11.29;98.92
74370;BME280;62805;44.644;10.942;2023-03-26T17:36:21;100018.63;;;11.05;99.50
74370;BME280;62805;44.644;10.942;2023-03-26T17:39:00;100051.41;;;10.91;99.29
74370;BME280;62805;44.644;10.942;2023-03-26T17:41:49;100063.13;;;10.74;98.68
74370;BME280;62805;44.644;10.942;2023-03-26T17:50:00;100013.41;;;10.46;98.74
74370;BME280;62805;44.644;10.942;2023-03-26T17:52:44;100009.31;;;10.39;99.97
74370;BME280;62805;44.644;10.942;2023-03-26T17:55:25;99980.63;;;10.42;100.00
74370;BME280;62805;44.644;10.942;2023-03-26T17:58:03;99982.81;;;10.45;100.00
74370;BME280;62805;44.644;10.942;2023-03-26T18:00:41;99989.72;;;10.34;99.46
74370;BME280;62805;44.644;10.942;2023-03-26T18:05:44;99979.66;;;10.28;100.00
74370;BME280;62805;44.644;10.942;2023-03-26T18:16:12;99900.78;;;10.48;97.25
74370;BME280;62805;44.644;10.942;2023-03-26T18:19:00;99903.84;;;10.70;98.20
74370;BME280;62805;44.644;10.942;2023-03-26T18:21:31;99883.47;;;10.78;99.24
74370;BME280;62805;44.644;10.942;2023-03-26T18:23:59;99892.44;;;10.80;99.59
74370;BME280;62805;44.644;10.942;2023-03-26T18:27:04;99885.47;;;10.96;100.00
74370;BME280;62805;44.644;10.942;2023-03-26T18:29:34;99862.38;;;10.99;100.00